Sky Queen — 3EHV9 — position and weather

sailwx.info

Track history (hours):
 
Tides and Currents Weather Stations Pressure Air Temp Water Temp Dewpoint Dewpoint Depression Visibility Wind Speed Wind Dir Waves Ship Positions

Sky Queen

Last reported at 2016-May-10 05:29 UTC. Time now 2016-May-26 04:42 UTC.
Position N 38°22' E 121°26'.
Warning: this ship's position is 15 days out of date.

Length 89 m; draft 5.1 m.

Type: Cargo ship. MMSI: 372259000.

Date/timePositionNaut miles runAvg speedWind from/ knotsBaromVisibWave heightAir tempDewpointWater temp
2016-May-10 05:29N 38°22' E 121°26'119 6.3
2016-May-09 10:33N 40°17' E 122°05'1 0.5
2016-May-09 09:14N 40°17' E 122°06'0 0.0
2016-May-09 08:26N 40°17' E 122°06'0 0.0
2016-May-09 06:32N 40°17' E 122°06'0 0.0
2016-May-09 03:14N 40°17' E 122°06'0 0.0
2016-May-09 02:26N 40°17' E 122°06'0 0.0
2016-May-09 01:15N 40°17' E 122°06'0 0.0
2016-May-09 00:20N 40°17' E 122°06'0 0.0
2016-May-08 23:32N 40°17' E 122°06'0 0.0
2016-May-08 22:32N 40°17' E 122°06'0 0.0
2016-May-08 19:20N 40°17' E 122°06'0 0.0
2016-May-08 18:32N 40°17' E 122°06'0 0.0
2016-May-08 17:32N 40°17' E 122°06'0 0.0
2016-May-08 16:32N 40°17' E 122°06'0 0.0
2016-May-08 15:20N 40°17' E 122°06'148 3.6
2016-May-06 22:33N 37°52' E 122°46'9 9.3
2016-May-06 21:33N 37°48' E 122°57'  
Track history (hours):
 
Tides and Currents Weather Stations Pressure Air Temp Water Temp Dewpoint Dewpoint Depression Visibility Wind Speed Wind Dir Waves Ship Positions

Sky Queen

Last reported at 2016-May-10 05:29 UTC. Time now 2016-May-26 04:42 UTC.
Position N 38°22' E 121°26'.
Warning: this ship's position is 15 days out of date.

Length 89 m; draft 5.1 m.

Type: Cargo ship. MMSI: 372259000.

Date/timePositionNaut miles runAvg speedWind from/ knotsBaromVisibWave heightAir tempDewpointWater temp
2016-May-10 05:29N 38°22' E 121°26'119 6.3
2016-May-09 10:33N 40°17' E 122°05'1 0.5
2016-May-09 09:14N 40°17' E 122°06'0 0.0
2016-May-09 08:26N 40°17' E 122°06'0 0.0
2016-May-09 06:32N 40°17' E 122°06'0 0.0
2016-May-09 03:14N 40°17' E 122°06'0 0.0
2016-May-09 02:26N 40°17' E 122°06'0 0.0
2016-May-09 01:15N 40°17' E 122°06'0 0.0
2016-May-09 00:20N 40°17' E 122°06'0 0.0
2016-May-08 23:32N 40°17' E 122°06'0 0.0
2016-May-08 22:32N 40°17' E 122°06'0 0.0
2016-May-08 19:20N 40°17' E 122°06'0 0.0
2016-May-08 18:32N 40°17' E 122°06'0 0.0
2016-May-08 17:32N 40°17' E 122°06'0 0.0
2016-May-08 16:32N 40°17' E 122°06'0 0.0
2016-May-08 15:20N 40°17' E 122°06'148 3.6
2016-May-06 22:33N 37°52' E 122°46'9 9.3
2016-May-06 21:33N 37°48' E 122°57'  

Dump ship's entire track history